Denver, Colorado
Traffic Map
Current Weather Conditions
Denver, Colorado
Broken Clouds Rain Showers
Broken Clouds
19°
Feels Like: 19°
Wind Chill: 19° Ceiling: 11000
Heat Index: 19° Visibility: 70mi
Dew Point: Wind: 16mph
Humidity: 28% Direction: 20° (NNE)
Pressure: 29.61in Gusts: 0mph
Raw Report DataKBKF 232155Z 02014KT 70SM VCSH SCT070 BKN110 BKN220 19/00 A2961 RMK SLP957
Traffic Incident Summary
Active as of:
Severity:
Category:
InformationThere was an issue retrieving the traffic information for this location. Please try a different location or try again shortly.
Advertisements
At Last! Intellicast now available for iPhone and Android